sensor_id;sensor_type;location;lat;lon;timestamp;P1;durP1;ratioP1;P2;durP2;ratioP2
66112;SDS011;52893;52.870;5.822;2024-01-11T00:01:52;14.07;;;5.55;;
66112;SDS011;52893;52.870;5.822;2024-01-11T00:04:20;9.68;;;4.40;;
66112;SDS011;52893;52.870;5.822;2024-01-11T00:06:49;14.80;;;4.53;;
66112;SDS011;52893;52.870;5.822;2024-01-11T00:09:17;15.00;;;5.60;;
66112;SDS011;52893;52.870;5.822;2024-01-11T00:11:44;7.72;;;3.35;;
66112;SDS011;52893;52.870;5.822;2024-01-11T00:14:11;9.55;;;3.42;;
66112;SDS011;52893;52.870;5.822;2024-01-11T00:16:38;13.88;;;5.22;;
66112;SDS011;52893;52.870;5.822;2024-01-11T00:19:06;11.65;;;5.22;;
66112;SDS011;52893;52.870;5.822;2024-01-11T00:21:33;11.88;;;4.88;;
66112;SDS011;52893;52.870;5.822;2024-01-11T00:24:02;15.18;;;5.15;;
66112;SDS011;52893;52.870;5.822;2024-01-11T00:26:30;4.78;;;2.95;;
66112;SDS011;52893;52.870;5.822;2024-01-11T00:28:57;15.13;;;5.50;;
66112;SDS011;52893;52.870;5.822;2024-01-11T00:31:24;16.63;;;5.47;;
66112;SDS011;52893;52.870;5.822;2024-01-11T00:33:53;14.48;;;4.97;;
66112;SDS011;52893;52.870;5.822;2024-01-11T00:36:20;15.75;;;5.35;;
66112;SDS011;52893;52.870;5.822;2024-01-11T00:38:47;10.65;;;4.75;;
66112;SDS011;52893;52.870;5.822;2024-01-11T00:41:16;15.80;;;5.28;;
66112;SDS011;52893;52.870;5.822;2024-01-11T00:43:43;16.80;;;4.70;;
66112;SDS011;52893;52.870;5.822;2024-01-11T00:46:11;10.93;;;4.43;;
66112;SDS011;52893;52.870;5.822;2024-01-11T00:48:38;16.20;;;5.13;;
66112;SDS011;52893;52.870;5.822;2024-01-11T00:51:05;15.10;;;5.22;;
66112;SDS011;52893;52.870;5.822;2024-01-11T00:53:33;13.85;;;5.80;;
66112;SDS011;52893;52.870;5.822;2024-01-11T00:56:00;11.18;;;4.22;;
66112;SDS011;52893;52.870;5.822;2024-01-11T00:58:29;8.13;;;3.88;;
66112;SDS011;52893;52.870;5.822;2024-01-11T01:00:56;9.25;;;3.92;;
66112;SDS011;52893;52.870;5.822;2024-01-11T01:03:24;23.20;;;5.63;;
66112;SDS011;52893;52.870;5.822;2024-01-11T01:05:51;16.40;;;5.72;;
66112;SDS011;52893;52.870;5.822;2024-01-11T01:08:18;13.07;;;5.25;;
66112;SDS011;52893;52.870;5.822;2024-01-11T01:10:46;9.98;;;4.38;;
66112;SDS011;52893;52.870;5.822;2024-01-11T01:13:13;21.70;;;5.45;;
66112;SDS011;52893;52.870;5.822;2024-01-11T01:15:42;10.82;;;4.30;;
66112;SDS011;52893;52.870;5.822;2024-01-11T01:18:09;14.20;;;4.90;;
66112;SDS011;52893;52.870;5.822;2024-01-11T01:20:37;13.43;;;4.80;;
66112;SDS011;52893;52.870;5.822;2024-01-11T01:23:04;11.70;;;4.88;;
66112;SDS011;52893;52.870;5.822;2024-01-11T01:25:31;6.47;;;2.85;;
66112;SDS011;52893;52.870;5.822;2024-01-11T01:27:58;15.48;;;5.40;;
66112;SDS011;52893;52.870;5.822;2024-01-11T01:30:26;12.82;;;5.50;;
66112;SDS011;52893;52.870;5.822;2024-01-11T01:32:55;12.02;;;4.43;;
66112;SDS011;52893;52.870;5.822;2024-01-11T01:35:23;19.05;;;6.30;;
66112;SDS011;52893;52.870;5.822;2024-01-11T01:37:50;13.40;;;5.35;;
66112;SDS011;52893;52.870;5.822;2024-01-11T01:40:17;12.55;;;4.47;;
66112;SDS011;52893;52.870;5.822;2024-01-11T01:42:45;9.30;;;3.65;;
66112;SDS011;52893;52.870;5.822;2024-01-11T01:45:14;12.68;;;4.18;;
66112;SDS011;52893;52.870;5.822;2024-01-11T01:47:42;6.38;;;3.22;;
66112;SDS011;52893;52.870;5.822;2024-01-11T01:50:12;12.45;;;4.13;;
66112;SDS011;52893;52.870;5.822;2024-01-11T01:52:40;20.90;;;4.82;;
66112;SDS011;52893;52.870;5.822;2024-01-11T01:55:09;15.80;;;4.88;;
66112;SDS011;52893;52.870;5.822;2024-01-11T01:57:39;11.93;;;4.90;;
66112;SDS011;52893;52.870;5.822;2024-01-11T02:00:07;10.52;;;4.82;;
66112;SDS011;52893;52.870;5.822;2024-01-11T02:02:40;12.55;;;4.00;;
66112;SDS011;52893;52.870;5.822;2024-01-11T02:05:11;14.07;;;4.95;;
66112;SDS011;52893;52.870;5.822;2024-01-11T02:07:40;11.23;;;4.10;;
66112;SDS011;52893;52.870;5.822;2024-01-11T02:10:08;29.23;;;6.07;;
66112;SDS011;52893;52.870;5.822;2024-01-11T02:12:36;13.27;;;5.90;;
66112;SDS011;52893;52.870;5.822;2024-01-11T02:15:04;13.80;;;4.75;;
66112;SDS011;52893;52.870;5.822;2024-01-11T02:17:33;13.77;;;5.30;;
66112;SDS011;52893;52.870;5.822;2024-01-11T02:20:00;17.67;;;5.75;;
66112;SDS011;52893;52.870;5.822;2024-01-11T02:22:31;14.85;;;6.18;;
66112;SDS011;52893;52.870;5.822;2024-01-11T02:25:02;12.35;;;4.95;;
66112;SDS011;52893;52.870;5.822;2024-01-11T02:27:30;12.13;;;5.05;;
66112;SDS011;52893;52.870;5.822;2024-01-11T02:29:57;15.40;;;5.75;;
66112;SDS011;52893;52.870;5.822;2024-01-11T02:32:24;14.23;;;5.15;;
66112;SDS011;52893;52.870;5.822;2024-01-11T02:34:52;13.10;;;4.68;;
66112;SDS011;52893;52.870;5.822;2024-01-11T02:37:19;12.05;;;4.78;;
66112;SDS011;52893;52.870;5.822;2024-01-11T02:39:46;12.70;;;5.03;;
66112;SDS011;52893;52.870;5.822;2024-01-11T02:42:15;14.95;;;4.93;;
66112;SDS011;52893;52.870;5.822;2024-01-11T02:44:43;16.08;;;5.55;;
66112;SDS011;52893;52.870;5.822;2024-01-11T02:47:10;15.85;;;5.78;;
66112;SDS011;52893;52.870;5.822;2024-01-11T02:49:37;18.02;;;5.85;;
66112;SDS011;52893;52.870;5.822;2024-01-11T02:52:05;19.08;;;6.18;;
66112;SDS011;52893;52.870;5.822;2024-01-11T02:54:32;14.05;;;5.20;;
66112;SDS011;52893;52.870;5.822;2024-01-11T02:56:59;18.95;;;5.85;;
66112;SDS011;52893;52.870;5.822;2024-01-11T02:59:28;17.50;;;5.00;;
66112;SDS011;52893;52.870;5.822;2024-01-11T03:01:55;13.98;;;4.05;;
66112;SDS011;52893;52.870;5.822;2024-01-11T03:04:23;15.18;;;5.03;;
66112;SDS011;52893;52.870;5.822;2024-01-11T03:06:50;11.45;;;3.95;;
66112;SDS011;52893;52.870;5.822;2024-01-11T03:09:16;15.70;;;5.00;;
66112;SDS011;52893;52.870;5.822;2024-01-11T03:11:43;8.10;;;3.67;;
66112;SDS011;52893;52.870;5.822;2024-01-11T03:14:11;13.27;;;4.43;;
66112;SDS011;52893;52.870;5.822;2024-01-11T03:16:39;15.32;;;5.40;;
66112;SDS011;52893;52.870;5.822;2024-01-11T03:19:07;13.93;;;4.82;;
66112;SDS011;52893;52.870;5.822;2024-01-11T03:21:34;12.38;;;1.90;;
66112;SDS011;52893;52.870;5.822;2024-01-11T03:24:02;5.88;;;2.42;;
66112;SDS011;52893;52.870;5.822;2024-01-11T03:26:29;5.53;;;2.03;;
66112;SDS011;52893;52.870;5.822;2024-01-11T03:28:57;6.70;;;3.47;;
66112;SDS011;52893;52.870;5.822;2024-01-11T03:31:24;9.45;;;3.53;;
66112;SDS011;52893;52.870;5.822;2024-01-11T03:33:53;9.85;;;4.13;;
66112;SDS011;52893;52.870;5.822;2024-01-11T03:36:22;8.38;;;3.90;;
66112;SDS011;52893;52.870;5.822;2024-01-11T03:38:50;15.65;;;5.65;;
66112;SDS011;52893;52.870;5.822;2024-01-11T03:41:18;6.93;;;3.50;;
66112;SDS011;52893;52.870;5.822;2024-01-11T03:43:45;9.95;;;3.17;;
66112;SDS011;52893;52.870;5.822;2024-01-11T03:46:13;10.75;;;3.53;;
66112;SDS011;52893;52.870;5.822;2024-01-11T03:48:40;19.75;;;6.38;;
66112;SDS011;52893;52.870;5.822;2024-01-11T03:51:09;19.58;;;5.80;;
66112;SDS011;52893;52.870;5.822;2024-01-11T03:53:36;13.52;;;5.45;;
66112;SDS011;52893;52.870;5.822;2024-01-11T03:56:04;11.82;;;4.97;;
66112;SDS011;52893;52.870;5.822;2024-01-11T03:58:31;18.70;;;6.03;;
66112;SDS011;52893;52.870;5.822;2024-01-11T04:00:59;22.35;;;5.95;;
66112;SDS011;52893;52.870;5.822;2024-01-11T04:03:26;14.02;;;5.32;;
66112;SDS011;52893;52.870;5.822;2024-01-11T04:05:54;18.40;;;5.28;;
66112;SDS011;52893;52.870;5.822;2024-01-11T04:08:22;16.75;;;6.38;;
66112;SDS011;52893;52.870;5.822;2024-01-11T04:10:50;17.60;;;5.93;;
66112;SDS011;52893;52.870;5.822;2024-01-11T04:13:17;14.25;;;5.70;;
66112;SDS011;52893;52.870;5.822;2024-01-11T04:15:44;12.02;;;4.63;;
66112;SDS011;52893;52.870;5.822;2024-01-11T04:18:12;18.38;;;5.38;;
66112;SDS011;52893;52.870;5.822;2024-01-11T04:20:40;14.60;;;6.15;;
66112;SDS011;52893;52.870;5.822;2024-01-11T04:23:07;16.58;;;5.53;;
66112;SDS011;52893;52.870;5.822;2024-01-11T04:25:36;19.95;;;6.32;;
66112;SDS011;52893;52.870;5.822;2024-01-11T04:28:03;20.55;;;7.03;;
66112;SDS011;52893;52.870;5.822;2024-01-11T04:30:31;18.90;;;6.32;;
66112;SDS011;52893;52.870;5.822;2024-01-11T04:32:59;18.08;;;6.00;;
66112;SDS011;52893;52.870;5.822;2024-01-11T04:35:26;17.52;;;6.25;;
66112;SDS011;52893;52.870;5.822;2024-01-11T04:37:53;17.48;;;6.05;;
66112;SDS011;52893;52.870;5.822;2024-01-11T04:40:21;16.08;;;5.75;;
66112;SDS011;52893;52.870;5.822;2024-01-11T04:42:49;18.95;;;6.40;;
66112;SDS011;52893;52.870;5.822;2024-01-11T04:45:16;18.17;;;6.07;;
66112;SDS011;52893;52.870;5.822;2024-01-11T04:47:44;18.38;;;5.75;;
66112;SDS011;52893;52.870;5.822;2024-01-11T04:50:11;17.13;;;5.40;;
66112;SDS011;52893;52.870;5.822;2024-01-11T04:52:39;12.73;;;5.75;;
66112;SDS011;52893;52.870;5.822;2024-01-11T04:55:06;13.05;;;5.22;;
66112;SDS011;52893;52.870;5.822;2024-01-11T04:57:34;18.25;;;6.10;;
66112;SDS011;52893;52.870;5.822;2024-01-11T05:00:03;19.25;;;7.05;;
66112;SDS011;52893;52.870;5.822;2024-01-11T05:02:31;17.45;;;6.55;;
66112;SDS011;52893;52.870;5.822;2024-01-11T05:04:58;19.77;;;6.82;;
66112;SDS011;52893;52.870;5.822;2024-01-11T05:07:26;20.85;;;6.50;;
66112;SDS011;52893;52.870;5.822;2024-01-11T05:09:54;17.63;;;6.60;;
66112;SDS011;52893;52.870;5.822;2024-01-11T05:12:21;19.08;;;6.75;;
66112;SDS011;52893;52.870;5.822;2024-01-11T05:14:48;13.20;;;4.97;;
66112;SDS011;52893;52.870;5.822;2024-01-11T05:17:17;13.60;;;5.85;;
66112;SDS011;52893;52.870;5.822;2024-01-11T05:19:44;27.08;;;7.15;;
66112;SDS011;52893;52.870;5.822;2024-01-11T05:22:12;18.77;;;5.78;;
66112;SDS011;52893;52.870;5.822;2024-01-11T05:24:39;21.00;;;7.57;;
66112;SDS011;52893;52.870;5.822;2024-01-11T05:27:06;17.38;;;5.20;;
66112;SDS011;52893;52.870;5.822;2024-01-11T05:29:34;21.27;;;6.90;;
66112;SDS011;52893;52.870;5.822;2024-01-11T05:32:01;14.52;;;5.88;;
66112;SDS011;52893;52.870;5.822;2024-01-11T05:34:30;15.50;;;5.43;;
66112;SDS011;52893;52.870;5.822;2024-01-11T05:36:57;23.92;;;7.78;;
66112;SDS011;52893;52.870;5.822;2024-01-11T05:39:24;11.60;;;4.28;;
66112;SDS011;52893;52.870;5.822;2024-01-11T05:41:52;24.67;;;7.03;;
66112;SDS011;52893;52.870;5.822;2024-01-11T05:44:19;11.60;;;3.80;;
66112;SDS011;52893;52.870;5.822;2024-01-11T05:46:46;12.82;;;4.03;;
66112;SDS011;52893;52.870;5.822;2024-01-11T05:49:13;20.48;;;6.38;;
66112;SDS011;52893;52.870;5.822;2024-01-11T05:51:42;6.32;;;2.95;;
66112;SDS011;52893;52.870;5.822;2024-01-11T05:54:09;19.30;;;6.43;;
66112;SDS011;52893;52.870;5.822;2024-01-11T05:56:37;20.27;;;5.97;;
66112;SDS011;52893;52.870;5.822;2024-01-11T05:59:04;14.20;;;4.68;;
66112;SDS011;52893;52.870;5.822;2024-01-11T06:01:31;15.93;;;5.78;;
66112;SDS011;52893;52.870;5.822;2024-01-11T06:03:58;16.63;;;5.55;;
66112;SDS011;52893;52.870;5.822;2024-01-11T06:06:26;12.30;;;5.57;;
66112;SDS011;52893;52.870;5.822;2024-01-11T06:08:54;16.65;;;5.88;;
66112;SDS011;52893;52.870;5.822;2024-01-11T06:11:22;21.88;;;7.03;;
66112;SDS011;52893;52.870;5.822;2024-01-11T06:13:49;22.75;;;6.97;;
66112;SDS011;52893;52.870;5.822;2024-01-11T06:16:16;19.23;;;7.13;;
66112;SDS011;52893;52.870;5.822;2024-01-11T06:18:44;19.95;;;7.20;;
66112;SDS011;52893;52.870;5.822;2024-01-11T06:21:11;16.30;;;6.00;;
66112;SDS011;52893;52.870;5.822;2024-01-11T06:23:38;21.63;;;7.13;;
66112;SDS011;52893;52.870;5.822;2024-01-11T06:26:07;16.88;;;6.15;;
66112;SDS011;52893;52.870;5.822;2024-01-11T06:28:34;19.73;;;6.95;;
66112;SDS011;52893;52.870;5.822;2024-01-11T06:31:02;18.40;;;6.78;;
66112;SDS011;52893;52.870;5.822;2024-01-11T06:33:30;22.02;;;6.63;;
66112;SDS011;52893;52.870;5.822;2024-01-11T06:35:58;25.50;;;8.38;;
66112;SDS011;52893;52.870;5.822;2024-01-11T06:38:26;15.88;;;6.70;;
66112;SDS011;52893;52.870;5.822;2024-01-11T06:40:53;21.52;;;5.55;;
66112;SDS011;52893;52.870;5.822;2024-01-11T06:43:22;16.73;;;5.80;;
66112;SDS011;52893;52.870;5.822;2024-01-11T06:45:49;19.70;;;6.50;;
66112;SDS011;52893;52.870;5.822;2024-01-11T06:48:16;20.55;;;7.45;;
66112;SDS011;52893;52.870;5.822;2024-01-11T06:50:44;22.23;;;6.93;;
66112;SDS011;52893;52.870;5.822;2024-01-11T06:53:11;24.10;;;6.88;;
66112;SDS011;52893;52.870;5.822;2024-01-11T06:55:38;16.80;;;6.68;;
66112;SDS011;52893;52.870;5.822;2024-01-11T06:58:06;15.65;;;5.53;;
66112;SDS011;52893;52.870;5.822;2024-01-11T07:00:35;14.70;;;6.85;;
66112;SDS011;52893;52.870;5.822;2024-01-11T07:03:03;16.13;;;6.32;;
66112;SDS011;52893;52.870;5.822;2024-01-11T07:05:31;22.80;;;6.43;;
66112;SDS011;52893;52.870;5.822;2024-01-11T07:07:58;11.25;;;4.03;;
66112;SDS011;52893;52.870;5.822;2024-01-11T07:10:26;16.08;;;6.25;;
66112;SDS011;52893;52.870;5.822;2024-01-11T07:12:53;5.40;;;2.72;;
66112;SDS011;52893;52.870;5.822;2024-01-11T07:15:20;14.88;;;5.70;;
66112;SDS011;52893;52.870;5.822;2024-01-11T07:17:50;17.27;;;5.72;;
66112;SDS011;52893;52.870;5.822;2024-01-11T07:20:19;22.45;;;6.90;;
66112;SDS011;52893;52.870;5.822;2024-01-11T07:22:46;24.77;;;6.07;;
66112;SDS011;52893;52.870;5.822;2024-01-11T07:25:13;20.58;;;6.03;;
66112;SDS011;52893;52.870;5.822;2024-01-11T07:27:41;15.00;;;5.28;;
66112;SDS011;52893;52.870;5.822;2024-01-11T07:30:09;11.00;;;4.65;;
66112;SDS011;52893;52.870;5.822;2024-01-11T07:32:37;15.40;;;4.65;;
66112;SDS011;52893;52.870;5.822;2024-01-11T07:35:07;8.32;;;3.95;;
66112;SDS011;52893;52.870;5.822;2024-01-11T07:37:36;6.75;;;1.65;;
66112;SDS011;52893;52.870;5.822;2024-01-11T07:40:04;19.02;;;6.57;;
66112;SDS011;52893;52.870;5.822;2024-01-11T07:42:35;7.83;;;3.93;;
66112;SDS011;52893;52.870;5.822;2024-01-11T07:45:04;21.42;;;7.78;;
66112;SDS011;52893;52.870;5.822;2024-01-11T07:47:32;18.83;;;6.45;;
66112;SDS011;52893;52.870;5.822;2024-01-11T07:50:00;12.82;;;5.22;;
66112;SDS011;52893;52.870;5.822;2024-01-11T07:52:28;20.25;;;5.68;;
66112;SDS011;52893;52.870;5.822;2024-01-11T07:54:56;16.15;;;5.90;;
66112;SDS011;52893;52.870;5.822;2024-01-11T07:57:25;26.58;;;7.47;;
66112;SDS011;52893;52.870;5.822;2024-01-11T07:59:53;19.70;;;5.82;;
66112;SDS011;52893;52.870;5.822;2024-01-11T08:02:21;20.92;;;7.07;;
66112;SDS011;52893;52.870;5.822;2024-01-11T08:04:49;22.42;;;6.50;;
66112;SDS011;52893;52.870;5.822;2024-01-11T08:07:16;19.25;;;6.68;;
66112;SDS011;52893;52.870;5.822;2024-01-11T08:09:45;18.40;;;7.07;;
66112;SDS011;52893;52.870;5.822;2024-01-11T08:12:12;11.88;;;4.97;;
66112;SDS011;52893;52.870;5.822;2024-01-11T08:14:39;17.40;;;5.88;;
66112;SDS011;52893;52.870;5.822;2024-01-11T08:17:07;19.42;;;6.18;;
66112;SDS011;52893;52.870;5.822;2024-01-11T08:19:35;18.70;;;5.78;;
66112;SDS011;52893;52.870;5.822;2024-01-11T08:22:02;15.60;;;5.10;;
66112;SDS011;52893;52.870;5.822;2024-01-11T08:24:30;19.30;;;6.72;;
66112;SDS011;52893;52.870;5.822;2024-01-11T08:26:58;13.18;;;5.72;;
66112;SDS011;52893;52.870;5.822;2024-01-11T08:29:26;18.83;;;6.85;;
66112;SDS011;52893;52.870;5.822;2024-01-11T08:31:53;15.25;;;6.32;;
66112;SDS011;52893;52.870;5.822;2024-01-11T08:34:22;12.68;;;5.07;;
66112;SDS011;52893;52.870;5.822;2024-01-11T08:36:52;20.38;;;6.40;;
66112;SDS011;52893;52.870;5.822;2024-01-11T08:39:19;8.45;;;4.07;;
66112;SDS011;52893;52.870;5.822;2024-01-11T08:41:47;14.02;;;5.93;;
66112;SDS011;52893;52.870;5.822;2024-01-11T08:44:15;17.63;;;6.55;;
66112;SDS011;52893;52.870;5.822;2024-01-11T08:46:44;19.73;;;6.72;;
66112;SDS011;52893;52.870;5.822;2024-01-11T08:49:11;9.35;;;3.20;;
66112;SDS011;52893;52.870;5.822;2024-01-11T08:51:38;8.07;;;1.92;;
66112;SDS011;52893;52.870;5.822;2024-01-11T08:54:06;16.15;;;6.00;;
66112;SDS011;52893;52.870;5.822;2024-01-11T08:56:35;16.33;;;5.72;;
66112;SDS011;52893;52.870;5.822;2024-01-11T08:59:02;18.80;;;6.00;;
66112;SDS011;52893;52.870;5.822;2024-01-11T09:01:31;5.45;;;1.90;;
66112;SDS011;52893;52.870;5.822;2024-01-11T09:04:01;2.35;;;1.27;;
66112;SDS011;52893;52.870;5.822;2024-01-11T09:06:28;14.43;;;4.18;;
66112;SDS011;52893;52.870;5.822;2024-01-11T09:08:56;3.60;;;2.80;;
66112;SDS011;52893;52.870;5.822;2024-01-11T09:11:23;18.33;;;6.18;;
66112;SDS011;52893;52.870;5.822;2024-01-11T09:13:51;14.55;;;4.05;;
66112;SDS011;52893;52.870;5.822;2024-01-11T09:16:18;3.47;;;2.25;;
66112;SDS011;52893;52.870;5.822;2024-01-11T09:18:47;2.95;;;2.17;;
66112;SDS011;52893;52.870;5.822;2024-01-11T09:21:14;8.45;;;3.85;;
66112;SDS011;52893;52.870;5.822;2024-01-11T09:23:41;5.80;;;3.28;;
66112;SDS011;52893;52.870;5.822;2024-01-11T09:26:09;10.80;;;5.65;;
66112;SDS011;52893;52.870;5.822;2024-01-11T09:28:36;4.10;;;2.30;;
66112;SDS011;52893;52.870;5.822;2024-01-11T09:31:03;4.20;;;1.60;;
66112;SDS011;52893;52.870;5.822;2024-01-11T09:33:30;9.27;;;5.20;;
66112;SDS011;52893;52.870;5.822;2024-01-11T09:35:59;8.05;;;4.30;;
66112;SDS011;52893;52.870;5.822;2024-01-11T09:38:26;3.67;;;2.42;;
66112;SDS011;52893;52.870;5.822;2024-01-11T09:40:57;6.15;;;3.15;;
66112;SDS011;52893;52.870;5.822;2024-01-11T09:43:31;9.05;;;3.92;;
66112;SDS011;52893;52.870;5.822;2024-01-11T09:46:00;8.00;;;3.42;;
66112;SDS011;52893;52.870;5.822;2024-01-11T09:48:31;15.38;;;5.70;;
66112;SDS011;52893;52.870;5.822;2024-01-11T09:51:02;21.27;;;6.00;;
66112;SDS011;52893;52.870;5.822;2024-01-11T09:53:30;8.07;;;3.78;;
66112;SDS011;52893;52.870;5.822;2024-01-11T09:55:59;4.82;;;2.78;;
66112;SDS011;52893;52.870;5.822;2024-01-11T09:58:27;2.78;;;2.22;;
66112;SDS011;52893;52.870;5.822;2024-01-11T10:00:56;6.50;;;2.38;;
66112;SDS011;52893;52.870;5.822;2024-01-11T10:03:25;3.90;;;1.05;;
66112;SDS011;52893;52.870;5.822;2024-01-11T10:05:54;7.78;;;3.65;;
66112;SDS011;52893;52.870;5.822;2024-01-11T10:08:25;14.55;;;5.35;;
66112;SDS011;52893;52.870;5.822;2024-01-11T10:10:53;13.70;;;3.92;;
66112;SDS011;52893;52.870;5.822;2024-01-11T10:13:25;8.68;;;3.70;;
66112;SDS011;52893;52.870;5.822;2024-01-11T10:16:04;2.47;;;2.28;;
66112;SDS011;52893;52.870;5.822;2024-01-11T10:18:32;16.98;;;5.65;;
66112;SDS011;52893;52.870;5.822;2024-01-11T10:20:59;11.20;;;3.90;;
66112;SDS011;52893;52.870;5.822;2024-01-11T10:23:28;6.93;;;2.38;;
66112;SDS011;52893;52.870;5.822;2024-01-11T10:25:56;5.95;;;2.90;;
66112;SDS011;52893;52.870;5.822;2024-01-11T10:28:24;5.82;;;1.40;;
66112;SDS011;52893;52.870;5.822;2024-01-11T10:30:52;20.00;;;6.25;;
66112;SDS011;52893;52.870;5.822;2024-01-11T10:33:20;2.22;;;2.10;;
66112;SDS011;52893;52.870;5.822;2024-01-11T10:35:47;2.72;;;2.20;;
66112;SDS011;52893;52.870;5.822;2024-01-11T10:38:15;8.32;;;3.92;;
66112;SDS011;52893;52.870;5.822;2024-01-11T10:40:45;0.93;;;0.70;;
66112;SDS011;52893;52.870;5.822;2024-01-11T10:43:12;11.27;;;1.85;;
66112;SDS011;52893;52.870;5.822;2024-01-11T10:48:15;13.15;;;5.75;;
66112;SDS011;52893;52.870;5.822;2024-01-11T10:50:44;5.28;;;3.33;;
66112;SDS011;52893;52.870;5.822;2024-01-11T10:53:19;11.50;;;2.65;;
66112;SDS011;52893;52.870;5.822;2024-01-11T10:55:55;5.75;;;3.35;;
66112;SDS011;52893;52.870;5.822;2024-01-11T10:58:24;8.20;;;4.05;;
66112;SDS011;52893;52.870;5.822;2024-01-11T11:00:53;10.02;;;5.07;;
66112;SDS011;52893;52.870;5.822;2024-01-11T11:03:21;6.60;;;3.53;;
66112;SDS011;52893;52.870;5.822;2024-01-11T11:05:52;13.77;;;6.07;;
66112;SDS011;52893;52.870;5.822;2024-01-11T11:08:21;5.15;;;3.17;;
66112;SDS011;52893;52.870;5.822;2024-01-11T11:10:51;2.72;;;1.95;;
66112;SDS011;52893;52.870;5.822;2024-01-11T11:13:23;2.60;;;2.13;;
66112;SDS011;52893;52.870;5.822;2024-01-11T11:15:50;8.70;;;3.33;;
66112;SDS011;52893;52.870;5.822;2024-01-11T11:18:19;9.18;;;3.83;;
66112;SDS011;52893;52.870;5.822;2024-01-11T11:20:47;5.75;;;2.90;;
66112;SDS011;52893;52.870;5.822;2024-01-11T11:23:16;12.40;;;3.78;;
66112;SDS011;52893;52.870;5.822;2024-01-11T11:25:45;5.85;;;2.17;;
66112;SDS011;52893;52.870;5.822;2024-01-11T11:28:13;4.88;;;2.50;;
66112;SDS011;52893;52.870;5.822;2024-01-11T11:30:44;11.50;;;6.05;;
66112;SDS011;52893;52.870;5.822;2024-01-11T11:33:16;0.77;;;0.40;;
66112;SDS011;52893;52.870;5.822;2024-01-11T11:35:45;13.70;;;5.10;;
66112;SDS011;52893;52.870;5.822;2024-01-11T11:38:20;18.60;;;8.75;;
66112;SDS011;52893;52.870;5.822;2024-01-11T11:40:48;10.43;;;3.90;;
66112;SDS011;52893;52.870;5.822;2024-01-11T11:43:18;14.27;;;6.45;;
66112;SDS011;52893;52.870;5.822;2024-01-11T11:45:48;8.23;;;3.33;;
66112;SDS011;52893;52.870;5.822;2024-01-11T11:51:17;10.30;;;4.80;;
66112;SDS011;52893;52.870;5.822;2024-01-11T11:53:45;15.23;;;1.98;;
66112;SDS011;52893;52.870;5.822;2024-01-11T11:56:13;7.95;;;4.45;;
66112;SDS011;52893;52.870;5.822;2024-01-11T11:58:43;9.70;;;5.28;;
66112;SDS011;52893;52.870;5.822;2024-01-11T12:01:14;10.85;;;5.43;;
66112;SDS011;52893;52.870;5.822;2024-01-11T12:03:43;13.23;;;6.57;;
66112;SDS011;52893;52.870;5.822;2024-01-11T12:06:15;6.93;;;3.53;;
66112;SDS011;52893;52.870;5.822;2024-01-11T12:08:43;5.72;;;2.60;;
66112;SDS011;52893;52.870;5.822;2024-01-11T12:11:14;2.33;;;0.98;;
66112;SDS011;52893;52.870;5.822;2024-01-11T12:13:42;2.30;;;0.95;;
66112;SDS011;52893;52.870;5.822;2024-01-11T12:16:10;3.95;;;1.98;;
66112;SDS011;52893;52.870;5.822;2024-01-11T12:18:39;3.13;;;0.80;;
66112;SDS011;52893;52.870;5.822;2024-01-11T12:21:07;6.25;;;1.95;;
66112;SDS011;52893;52.870;5.822;2024-01-11T12:23:36;3.83;;;1.77;;
66112;SDS011;52893;52.870;5.822;2024-01-11T12:26:05;8.05;;;3.60;;
66112;SDS011;52893;52.870;5.822;2024-01-11T12:28:39;1.77;;;1.58;;
66112;SDS011;52893;52.870;5.822;2024-01-11T12:31:07;10.38;;;2.35;;
66112;SDS011;52893;52.870;5.822;2024-01-11T12:33:37;2.88;;;1.55;;
66112;SDS011;52893;52.870;5.822;2024-01-11T12:36:05;2.58;;;1.48;;
66112;SDS011;52893;52.870;5.822;2024-01-11T12:38:34;5.07;;;3.35;;
66112;SDS011;52893;52.870;5.822;2024-01-11T12:41:02;5.07;;;3.08;;
66112;SDS011;52893;52.870;5.822;2024-01-11T12:43:30;2.13;;;1.35;;
66112;SDS011;52893;52.870;5.822;2024-01-11T12:45:59;3.67;;;1.77;;
66112;SDS011;52893;52.870;5.822;2024-01-11T12:48:28;7.50;;;2.80;;
66112;SDS011;52893;52.870;5.822;2024-01-11T12:50:57;3.13;;;1.45;;
66112;SDS011;52893;52.870;5.822;2024-01-11T12:53:25;9.65;;;2.83;;
66112;SDS011;52893;52.870;5.822;2024-01-11T12:56:01;3.78;;;2.00;;
66112;SDS011;52893;52.870;5.822;2024-01-11T12:58:30;4.97;;;2.97;;
66112;SDS011;52893;52.870;5.822;2024-01-11T13:00:58;6.20;;;3.63;;
66112;SDS011;52893;52.870;5.822;2024-01-11T13:03:25;0.65;;;0.57;;
66112;SDS011;52893;52.870;5.822;2024-01-11T13:05:53;2.33;;;1.40;;
66112;SDS011;52893;52.870;5.822;2024-01-11T13:08:22;5.68;;;2.30;;
66112;SDS011;52893;52.870;5.822;2024-01-11T13:10:50;5.32;;;2.33;;
66112;SDS011;52893;52.870;5.822;2024-01-11T13:13:17;2.78;;;1.48;;
66112;SDS011;52893;52.870;5.822;2024-01-11T13:15:45;5.32;;;2.28;;
66112;SDS011;52893;52.870;5.822;2024-01-11T13:18:13;4.30;;;2.08;;
66112;SDS011;52893;52.870;5.822;2024-01-11T13:20:41;3.38;;;1.25;;
66112;SDS011;52893;52.870;5.822;2024-01-11T13:23:11;1.77;;;1.40;;
66112;SDS011;52893;52.870;5.822;2024-01-11T13:25:42;7.65;;;2.47;;
66112;SDS011;52893;52.870;5.822;2024-01-11T13:28:10;4.85;;;2.80;;
66112;SDS011;52893;52.870;5.822;2024-01-11T13:30:38;8.52;;;4.47;;
66112;SDS011;52893;52.870;5.822;2024-01-11T13:33:06;6.68;;;2.47;;
66112;SDS011;52893;52.870;5.822;2024-01-11T13:35:34;6.57;;;2.15;;
66112;SDS011;52893;52.870;5.822;2024-01-11T13:38:02;1.25;;;0.77;;
66112;SDS011;52893;52.870;5.822;2024-01-11T13:40:30;4.95;;;2.53;;
66112;SDS011;52893;52.870;5.822;2024-01-11T13:42:59;4.35;;;2.10;;
66112;SDS011;52893;52.870;5.822;2024-01-11T13:45:27;6.47;;;2.25;;
66112;SDS011;52893;52.870;5.822;2024-01-11T13:47:55;1.15;;;0.82;;
66112;SDS011;52893;52.870;5.822;2024-01-11T13:50:23;6.93;;;2.22;;
66112;SDS011;52893;52.870;5.822;2024-01-11T13:52:50;6.43;;;2.58;;
66112;SDS011;52893;52.870;5.822;2024-01-11T13:55:18;7.63;;;2.42;;
66112;SDS011;52893;52.870;5.822;2024-01-11T13:57:47;2.33;;;1.00;;
66112;SDS011;52893;52.870;5.822;2024-01-11T14:00:17;10.15;;;3.95;;
66112;SDS011;52893;52.870;5.822;2024-01-11T14:02:46;3.10;;;1.67;;
66112;SDS011;52893;52.870;5.822;2024-01-11T14:05:13;5.68;;;3.05;;
66112;SDS011;52893;52.870;5.822;2024-01-11T14:07:43;5.90;;;2.80;;
66112;SDS011;52893;52.870;5.822;2024-01-11T14:10:11;7.78;;;3.83;;
66112;SDS011;52893;52.870;5.822;2024-01-11T14:12:39;12.77;;;4.85;;
66112;SDS011;52893;52.870;5.822;2024-01-11T14:15:07;8.45;;;3.35;;
66112;SDS011;52893;52.870;5.822;2024-01-11T14:17:39;15.18;;;6.97;;
66112;SDS011;52893;52.870;5.822;2024-01-11T14:20:07;10.60;;;3.85;;
66112;SDS011;52893;52.870;5.822;2024-01-11T14:22:39;6.70;;;3.70;;
66112;SDS011;52893;52.870;5.822;2024-01-11T14:25:07;7.18;;;3.35;;
66112;SDS011;52893;52.870;5.822;2024-01-11T14:27:36;2.70;;;1.83;;
66112;SDS011;52893;52.870;5.822;2024-01-11T14:30:04;5.30;;;2.00;;
66112;SDS011;52893;52.870;5.822;2024-01-11T14:32:33;3.53;;;1.83;;
66112;SDS011;52893;52.870;5.822;2024-01-11T14:35:02;2.65;;;2.08;;
66112;SDS011;52893;52.870;5.822;2024-01-11T14:37:30;5.97;;;2.95;;
66112;SDS011;52893;52.870;5.822;2024-01-11T14:39:57;9.98;;;3.85;;
66112;SDS011;52893;52.870;5.822;2024-01-11T14:42:25;4.53;;;2.55;;
66112;SDS011;52893;52.870;5.822;2024-01-11T14:44:53;7.50;;;2.13;;
66112;SDS011;52893;52.870;5.822;2024-01-11T14:47:21;2.28;;;1.55;;
66112;SDS011;52893;52.870;5.822;2024-01-11T14:49:49;2.42;;;1.88;;
66112;SDS011;52893;52.870;5.822;2024-01-11T14:52:18;6.47;;;3.05;;